GCLP

Gran Canaria Airport

Gran Canaria Island, Spain
TAF AMD GCLP 170935Z 1709/1809 11006KT 8000 NSC TX23/1714Z TN16/1806Z TEMPO 1709/1711 32010KT BECMG 1717/1720 36010KT
Issued Valid From Valid To
Dec-17 @ 09:35 UTC
(4 hours ago)
Dec-17 @ 09:00 UTC
(4 hours ago)
Dec-18 @ 09:00 UTC
(in 20 hours)
Dec-17 @ 09:00 to Dec-17 @ 17:00
TAF AMD GCLP 170935Z 1709/1809 11006KT 8000 NSC TX23/1714Z TN16/1806Z
Wind Visibility Clouds
110° at 6 knots 7,998 meters
  • No significant clouds
Expired Click to View Dec-17 @ 09:00 to Dec-17 @ 11:00
TEMPO 1709/1711 32010KT
Wind
320° at 10 knots
Becoming Dec-17 @ 17:00 to Dec-18 @ 09:00
BECMG 1717/1720 36010KT
Wind Visibility Clouds
360° at 10 knots 7,998 meters
  • No significant clouds
TAF AMD GCLP 170935Z 1709/1809 11006KT 8000 NSC TX23/1714Z TN16/1806Z TEMPO 1709/1711 32010KT BECMG 1717/1720 36010KT
Issued Dec-17 @ 09:35 UTC
(4 hours ago)
Valid From Dec-17 @ 09:00 UTC
(4 hours ago)
Valid To Dec-18 @ 09:00 UTC
(in 20 hours)
Dec-17 @ 09:00 - Dec-17 @ 17:00
Wind Visibility
110° at 6 knots 7,998 meters
Clouds
  • No significant clouds
Dec-17 @ 09:00 - Dec-17 @ 11:00
Wind
320° at 10 knots
Becoming Dec-17 @ 17:00 - Dec-18 @ 09:00
Wind Visibility
360° at 10 knots 7,998 meters
Clouds
  • No significant clouds